createdAt,value
2023-03-25T00:00:24.636Z,1.20
2023-03-25T00:02:52.611Z,1.10
2023-03-25T00:05:21.461Z,1.20
2023-03-25T00:07:51.518Z,1.17
2023-03-25T00:10:18.117Z,1.58
2023-03-25T00:12:44.788Z,1.10
2023-03-25T00:15:12.611Z,1.25
2023-03-25T00:17:39.239Z,1.17
2023-03-25T00:20:09.621Z,1.50
2023-03-25T00:22:40.843Z,1.38
2023-03-25T00:25:17.729Z,1.08
2023-03-25T00:27:46.378Z,1.00
2023-03-25T00:30:14.478Z,1.80
2023-03-25T00:32:41.059Z,1.48
2023-03-25T00:35:08.427Z,1.63
2023-03-25T00:37:34.904Z,1.17
2023-03-25T00:40:01.511Z,2.05
2023-03-25T00:42:27.949Z,1.42
2023-03-25T00:44:54.467Z,1.60
2023-03-25T00:47:22.027Z,1.33
2023-03-25T00:49:49.841Z,1.50
2023-03-25T00:52:16.841Z,1.30
2023-03-25T00:54:43.861Z,1.25
2023-03-25T00:57:10.441Z,1.35
2023-03-25T00:59:36.857Z,1.48
2023-03-25T01:02:03.663Z,1.23
2023-03-25T01:04:30.228Z,1.45
2023-03-25T01:06:56.849Z,1.50
2023-03-25T01:09:23.371Z,1.83
2023-03-25T01:11:50.256Z,1.92
2023-03-25T01:14:24.031Z,2.38
2023-03-25T01:16:50.577Z,2.00
2023-03-25T01:19:17.125Z,2.13
2023-03-25T01:21:45.178Z,1.80
2023-03-25T01:24:14.327Z,1.63
2023-03-25T01:26:43.484Z,1.73
2023-03-25T01:29:11.126Z,1.58
2023-03-25T01:31:37.600Z,1.45
2023-03-25T01:34:04.628Z,1.58
2023-03-25T01:36:31.266Z,1.77
2023-03-25T01:38:59.348Z,1.40
2023-03-25T01:41:33.210Z,1.60
2023-03-25T01:44:10.480Z,1.45
2023-03-25T01:46:39.288Z,1.60
2023-03-25T01:49:09.371Z,1.08
2023-03-25T01:51:40.727Z,1.30
2023-03-25T01:54:07.969Z,1.40
2023-03-25T01:56:38.344Z,1.02
2023-03-25T01:59:06.766Z,1.17
2023-03-25T02:01:33.254Z,1.30
2023-03-25T02:04:11.508Z,1.20
2023-03-25T02:06:44.711Z,1.30
2023-03-25T02:09:13.571Z,1.20
2023-03-25T02:11:40.792Z,1.25
2023-03-25T02:14:12.354Z,1.20
2023-03-25T02:16:50.837Z,1.10
2023-03-25T02:19:54.520Z,1.37
2023-03-25T02:22:54.636Z,1.40
2023-03-25T02:25:36.266Z,1.33
2023-03-25T02:28:12.565Z,1.50
2023-03-25T02:31:12.768Z,1.27
2023-03-25T02:34:12.770Z,1.00
2023-03-25T02:36:39.648Z,1.30
2023-03-25T02:39:24.446Z,1.23
2023-03-25T02:42:01.665Z,1.40
2023-03-25T02:44:36.814Z,1.70
2023-03-25T02:47:08.867Z,2.28
2023-03-25T02:49:39.182Z,1.48
2023-03-25T02:52:15.770Z,1.88
2023-03-25T02:54:45.162Z,1.85
2023-03-25T02:59:41.652Z,1.50
2023-03-25T03:02:10.213Z,1.58
2023-03-25T03:04:55.854Z,1.27
2023-03-25T03:07:34.916Z,1.40
2023-03-25T03:10:20.384Z,1.40
2023-03-25T03:12:55.653Z,1.33
2023-03-25T03:15:37.225Z,1.30
2023-03-25T03:18:38.015Z,1.20
2023-03-25T03:21:13.630Z,1.52
2023-03-25T03:23:48.942Z,1.48
2023-03-25T03:26:34.283Z,1.65
2023-03-25T03:29:20.261Z,1.65
2023-03-25T03:32:06.283Z,1.50
2023-03-25T03:34:44.549Z,1.10
2023-03-25T03:37:18.441Z,1.20
2023-03-25T03:39:47.737Z,1.10
2023-03-25T03:42:38.100Z,1.20
2023-03-25T03:45:13.771Z,1.33
2023-03-25T03:47:47.559Z,1.75
2023-03-25T03:50:22.180Z,1.30
2023-03-25T03:53:00.651Z,1.20
2023-03-25T03:55:37.817Z,1.60
2023-03-25T03:58:15.191Z,1.48
2023-03-25T04:00:52.496Z,1.30
2023-03-25T04:03:28.263Z,1.65
2023-03-25T04:06:15.836Z,1.60
2023-03-25T04:09:27.042Z,1.40
2023-03-25T04:12:05.697Z,1.40
2023-03-25T04:14:32.638Z,1.70
2023-03-25T04:16:59.678Z,1.67
2023-03-25T04:19:26.695Z,1.25
2023-03-25T04:21:53.807Z,1.10
2023-03-25T04:24:20.438Z,1.30
2023-03-25T04:26:47.623Z,1.08
2023-03-25T04:29:14.098Z,1.30
2023-03-25T04:31:46.649Z,1.27
2023-03-25T04:34:16.617Z,0.90
2023-03-25T04:36:43.530Z,1.17
2023-03-25T04:39:11.863Z,1.02
2023-03-25T04:41:39.142Z,1.45
2023-03-25T04:44:08.040Z,1.58
2023-03-25T04:46:36.432Z,1.23
2023-03-25T04:49:06.004Z,1.40
2023-03-25T04:51:32.985Z,1.40
2023-03-25T04:53:59.588Z,1.33
2023-03-25T04:56:26.389Z,1.30
2023-03-25T04:58:53.419Z,1.17
2023-03-25T05:01:32.320Z,1.33
2023-03-25T05:04:07.642Z,1.20
2023-03-25T05:06:38.284Z,1.20
2023-03-25T05:09:05.861Z,1.10
2023-03-25T05:11:34.451Z,1.33
2023-03-25T05:14:01.045Z,1.55
2023-03-25T05:16:27.521Z,1.67
2023-03-25T05:18:54.058Z,1.40
2023-03-25T05:21:21.583Z,1.65
2023-03-25T05:23:48.048Z,1.20
2023-03-25T05:26:14.956Z,1.33
2023-03-25T05:28:42.223Z,1.80
2023-03-25T05:31:09.320Z,1.30
2023-03-25T05:33:43.318Z,1.52
2023-03-25T05:36:11.679Z,1.60
2023-03-25T05:38:41.631Z,1.65
2023-03-25T05:41:10.633Z,1.60
2023-03-25T05:43:38.302Z,1.67
2023-03-25T05:46:05.301Z,1.30
2023-03-25T05:48:33.146Z,1.50
2023-03-25T05:51:04.389Z,1.70
2023-03-25T05:53:30.952Z,2.20
2023-03-25T05:55:57.602Z,1.77
2023-03-25T05:58:25.097Z,1.45
2023-03-25T06:00:51.777Z,1.55
2023-03-25T06:03:20.806Z,1.45
2023-03-25T06:05:48.393Z,1.27
2023-03-25T06:08:17.111Z,1.33
2023-03-25T06:10:45.684Z,1.57
2023-03-25T06:13:12.211Z,1.60
2023-03-25T06:15:40.604Z,1.98
2023-03-25T06:18:07.324Z,1.85
2023-03-25T06:20:33.857Z,1.90
2023-03-25T06:23:01.876Z,1.60
2023-03-25T06:25:28.520Z,2.22
2023-03-25T06:27:56.195Z,2.35
2023-03-25T06:30:22.835Z,2.08
2023-03-25T06:32:50.903Z,1.55
2023-03-25T06:35:19.843Z,1.70
2023-03-25T06:37:48.107Z,1.83
2023-03-25T06:40:15.470Z,1.92
2023-03-25T06:42:42.108Z,1.70
2023-03-25T06:45:09.163Z,2.22
2023-03-25T06:47:35.834Z,2.00
2023-03-25T06:50:02.315Z,1.90
2023-03-25T06:52:28.770Z,1.70
2023-03-25T06:54:55.470Z,2.08
2023-03-25T06:57:22.004Z,1.45
2023-03-25T06:59:49.616Z,1.45
2023-03-25T07:02:16.099Z,1.48
2023-03-25T07:04:42.740Z,1.80
2023-03-25T07:07:09.608Z,1.48
2023-03-25T07:09:36.122Z,1.30
2023-03-25T07:12:03.012Z,1.40
2023-03-25T07:14:29.636Z,1.40
2023-03-25T07:16:56.327Z,1.45
2023-03-25T07:19:23.126Z,1.42
2023-03-25T07:21:49.620Z,1.40
2023-03-25T07:24:16.064Z,1.60
2023-03-25T07:26:42.543Z,1.52
2023-03-25T07:29:08.997Z,1.58
2023-03-25T07:31:35.609Z,1.63
2023-03-25T07:34:02.851Z,1.30
2023-03-25T07:36:29.387Z,1.35
2023-03-25T07:38:57.122Z,1.08
2023-03-25T07:41:23.813Z,1.83
2023-03-25T07:43:50.306Z,1.65
2023-03-25T07:46:16.792Z,1.38
2023-03-25T07:48:43.311Z,1.15
2023-03-25T07:51:10.019Z,1.23
2023-03-25T07:53:39.027Z,1.50
2023-03-25T07:56:06.700Z,1.48
2023-03-25T07:58:33.143Z,1.48
2023-03-25T08:00:59.593Z,1.23
2023-03-25T08:03:27.864Z,1.75
2023-03-25T08:05:54.648Z,1.30
2023-03-25T08:08:21.186Z,1.40
2023-03-25T08:10:48.093Z,1.40
2023-03-25T08:13:14.616Z,1.10
2023-03-25T08:15:41.140Z,0.93
2023-03-25T08:18:07.869Z,1.13
2023-03-25T08:20:34.803Z,1.15
2023-03-25T08:23:02.748Z,1.50
2023-03-25T08:25:29.888Z,1.40
2023-03-25T08:27:56.640Z,1.45
2023-03-25T08:30:23.363Z,1.27
2023-03-25T08:32:54.611Z,1.50
2023-03-25T08:35:23.635Z,1.40
2023-03-25T08:37:50.803Z,1.23
2023-03-25T08:40:17.302Z,1.60
2023-03-25T08:42:44.228Z,1.70
2023-03-25T08:45:11.536Z,1.60
2023-03-25T08:47:38.331Z,1.50
2023-03-25T08:50:05.756Z,1.60
2023-03-25T08:52:32.176Z,1.92
2023-03-25T08:54:58.685Z,1.85
2023-03-25T08:57:25.451Z,1.80
2023-03-25T08:59:52.180Z,2.17
2023-03-25T09:02:18.615Z,2.15
2023-03-25T09:04:51.873Z,2.10
2023-03-25T09:07:19.750Z,2.55
2023-03-25T09:09:46.760Z,2.28
2023-03-25T09:12:13.354Z,2.33
2023-03-25T09:14:39.841Z,2.13
2023-03-25T09:17:06.568Z,1.52
2023-03-25T09:19:37.769Z,1.60
2023-03-25T09:22:04.434Z,1.92
2023-03-25T09:24:33.883Z,1.58
2023-03-25T09:29:28.464Z,1.70
2023-03-25T09:31:55.285Z,2.88
2023-03-25T09:34:22.523Z,2.35
2023-03-25T09:36:49.001Z,2.38
2023-03-25T09:39:15.683Z,2.53
2023-03-25T09:42:13.458Z,2.25
2023-03-25T09:45:11.130Z,2.53
2023-03-25T09:47:41.398Z,1.83
2023-03-25T09:50:14.266Z,2.10
2023-03-25T09:52:55.447Z,1.63
2023-03-25T09:55:26.274Z,2.20
2023-03-25T09:58:05.069Z,2.00
2023-03-25T10:00:31.987Z,1.92
2023-03-25T10:03:14.469Z,2.10
2023-03-25T10:05:55.802Z,2.17
2023-03-25T10:08:43.609Z,2.00
2023-03-25T10:11:25.937Z,2.00
2023-03-25T10:13:59.315Z,1.88
2023-03-25T10:16:47.727Z,1.90
2023-03-25T10:19:42.785Z,2.15
2023-03-25T10:22:17.523Z,2.03
2023-03-25T10:24:53.354Z,2.20
2023-03-25T10:27:27.124Z,1.40
2023-03-25T10:29:59.628Z,2.10
2023-03-25T10:32:34.666Z,1.67
2023-03-25T10:35:05.452Z,2.05
2023-03-25T10:37:35.633Z,1.80
2023-03-25T10:40:17.657Z,2.55
2023-03-25T10:43:04.977Z,2.20
2023-03-25T10:45:32.662Z,2.45
2023-03-25T10:48:28.073Z,2.63
2023-03-25T10:51:04.899Z,2.38
2023-03-25T10:53:31.478Z,2.28
2023-03-25T10:56:13.265Z,2.80
2023-03-25T10:58:42.040Z,2.28
2023-03-25T11:01:18.217Z,1.90
2023-03-25T11:03:49.160Z,2.55
2023-03-25T11:06:29.610Z,2.10
2023-03-25T11:09:08.417Z,2.22
2023-03-25T11:11:35.862Z,1.98
2023-03-25T11:14:03.484Z,1.77
2023-03-25T11:16:35.701Z,2.47
2023-03-25T11:19:04.097Z,2.50
2023-03-25T11:21:32.979Z,2.10
2023-03-25T11:24:00.998Z,1.73
2023-03-25T11:26:38.435Z,1.88
2023-03-25T11:29:14.207Z,2.17
2023-03-25T11:31:42.842Z,2.42
2023-03-25T11:34:12.143Z,2.07
2023-03-25T11:36:46.954Z,2.40
2023-03-25T11:39:30.374Z,2.13
2023-03-25T11:41:58.662Z,2.20
2023-03-25T11:44:33.008Z,1.85
2023-03-25T11:47:06.083Z,1.50
2023-03-25T11:49:38.739Z,1.95
2023-03-25T11:52:10.387Z,2.03
2023-03-25T11:54:37.635Z,2.17
2023-03-25T11:57:10.806Z,1.75
2023-03-25T11:59:43.144Z,1.98
2023-03-25T12:02:36.720Z,1.48
2023-03-25T12:05:16.544Z,1.95
2023-03-25T12:07:45.816Z,1.88
2023-03-25T12:10:29.354Z,1.85
2023-03-25T12:13:07.902Z,1.77
2023-03-25T12:15:59.077Z,1.70
2023-03-25T12:18:41.715Z,2.10
2023-03-25T12:21:32.555Z,1.95
2023-03-25T12:24:36.659Z,2.15
2023-03-25T12:27:19.926Z,1.60
2023-03-25T12:29:56.219Z,1.60
2023-03-25T12:32:34.927Z,2.03
2023-03-25T12:35:08.506Z,2.33
2023-03-25T12:37:41.087Z,2.20
2023-03-25T12:40:37.423Z,2.20
2023-03-25T12:43:05.697Z,2.30
2023-03-25T12:45:41.748Z,2.03
2023-03-25T12:48:21.899Z,2.30
2023-03-25T12:50:53.559Z,1.90
2023-03-25T12:53:19.969Z,2.13
2023-03-25T12:55:56.551Z,2.00
2023-03-25T12:58:59.850Z,1.92
2023-03-25T13:01:42.279Z,2.30
2023-03-25T13:04:18.016Z,2.28
2023-03-25T13:07:04.688Z,1.50
2023-03-25T13:09:36.164Z,2.15
2023-03-25T13:12:14.683Z,2.10
2023-03-25T13:15:27.173Z,2.80
2023-03-25T13:18:03.851Z,2.17
2023-03-25T13:20:35.113Z,2.45
2023-03-25T13:23:05.696Z,2.00
2023-03-25T13:25:38.219Z,1.83
2023-03-25T13:28:10.744Z,2.53
2023-03-25T13:30:39.581Z,1.75
2023-03-25T13:33:30.324Z,1.83
2023-03-25T13:36:05.795Z,1.65
2023-03-25T13:38:37.051Z,2.33
2023-03-25T13:41:12.063Z,2.08
2023-03-25T13:43:44.573Z,1.95
2023-03-25T13:46:19.912Z,1.50
2023-03-25T13:48:58.254Z,2.10
2023-03-25T13:51:24.836Z,1.52
2023-03-25T13:53:54.297Z,2.10
2023-03-25T13:59:26.106Z,2.10
2023-03-25T14:02:17.498Z,1.90
2023-03-25T14:04:59.315Z,1.63
2023-03-25T14:07:44.724Z,2.45
2023-03-25T14:10:28.090Z,2.30
2023-03-25T14:12:58.982Z,2.03
2023-03-25T14:15:28.672Z,1.90
2023-03-25T14:17:56.037Z,1.92
2023-03-25T14:20:31.929Z,2.10
2023-03-25T14:23:04.745Z,2.10
2023-03-25T14:25:37.824Z,1.77
2023-03-25T14:28:06.123Z,1.67
2023-03-25T14:30:33.647Z,2.20
2023-03-25T14:33:03.750Z,2.15
2023-03-25T14:35:39.172Z,2.40
2023-03-25T14:38:08.715Z,2.15
2023-03-25T14:40:59.585Z,2.47
2023-03-25T14:43:46.138Z,2.40
2023-03-25T14:46:13.282Z,1.95
2023-03-25T14:48:45.776Z,1.92
2023-03-25T14:51:23.399Z,2.47
2023-03-25T14:54:03.167Z,1.75
2023-03-25T14:59:15.577Z,2.00
2023-03-25T15:01:44.127Z,1.90
2023-03-25T15:04:24.612Z,2.00
2023-03-25T15:06:51.861Z,2.85
2023-03-25T15:09:20.795Z,2.35
2023-03-25T15:11:59.525Z,2.38
2023-03-25T15:14:36.287Z,2.17
2023-03-25T15:17:06.428Z,2.33
2023-03-25T15:20:11.865Z,2.55
2023-03-25T15:22:38.982Z,2.53
2023-03-25T15:25:16.643Z,2.08
2023-03-25T15:27:49.032Z,2.70
2023-03-25T15:30:37.558Z,2.35
2023-03-25T15:33:21.460Z,2.70
2023-03-25T15:36:12.365Z,2.80
2023-03-25T15:39:06.650Z,2.35
2023-03-25T15:41:41.813Z,2.47
2023-03-25T15:44:46.060Z,2.45
2023-03-25T15:47:36.787Z,2.40
2023-03-25T15:50:24.499Z,2.10
2023-03-25T15:53:02.971Z,1.70
2023-03-25T15:55:53.407Z,2.20
2023-03-25T15:58:31.068Z,2.60
2023-03-25T16:01:08.334Z,1.98
2023-03-25T16:03:35.161Z,2.45
2023-03-25T16:06:06.590Z,2.08
2023-03-25T16:08:37.487Z,1.83
2023-03-25T16:11:25.912Z,2.22
2023-03-25T16:14:12.637Z,1.85
2023-03-25T16:16:43.764Z,2.75
2023-03-25T16:19:16.593Z,1.92
2023-03-25T16:21:43.265Z,2.47
2023-03-25T16:24:12.734Z,2.22
2023-03-25T16:29:22.854Z,2.23
2023-03-25T16:32:01.356Z,2.40
2023-03-25T16:34:34.327Z,1.85
2023-03-25T16:37:01.585Z,1.98
2023-03-25T16:39:34.290Z,2.25
2023-03-25T16:42:25.951Z,2.92
2023-03-25T16:44:52.896Z,1.85
2023-03-25T16:47:21.106Z,2.30
2023-03-25T16:49:50.273Z,2.13
2023-03-25T16:52:22.383Z,2.25
2023-03-25T16:55:28.263Z,2.13
2023-03-25T16:57:54.889Z,2.28
2023-03-25T17:00:24.356Z,1.70
2023-03-25T17:05:25.476Z,2.10
2023-03-25T17:08:04.785Z,1.77
2023-03-25T17:10:43.275Z,2.35
2023-03-25T17:13:12.963Z,2.47
2023-03-25T17:15:39.850Z,2.05
2023-03-25T17:18:12.980Z,1.92
2023-03-25T17:20:42.388Z,2.15
2023-03-25T17:25:57.917Z,2.45
2023-03-25T17:28:39.781Z,1.77
2023-03-25T17:31:30.281Z,2.10
2023-03-25T17:34:07.938Z,2.25
2023-03-25T17:36:37.771Z,2.10
2023-03-25T17:39:13.146Z,2.10
2023-03-25T17:41:40.216Z,2.65
2023-03-25T17:44:07.379Z,1.85
2023-03-25T17:46:35.020Z,2.08
2023-03-25T17:49:01.686Z,1.88
2023-03-25T17:51:30.443Z,2.17
2023-03-25T17:53:57.484Z,2.78
2023-03-25T17:56:28.151Z,2.10
2023-03-25T17:58:59.370Z,2.22
2023-03-25T18:01:28.077Z,2.30
2023-03-25T18:03:55.091Z,2.38
2023-03-25T18:06:21.968Z,1.85
2023-03-25T18:08:49.220Z,2.53
2023-03-25T18:11:15.966Z,2.50
2023-03-25T18:13:47.696Z,2.15
2023-03-25T18:16:19.978Z,3.22
2023-03-25T18:18:47.142Z,2.38
2023-03-25T18:21:16.205Z,2.55
2023-03-25T18:23:47.907Z,2.00
2023-03-25T18:26:18.714Z,1.85
2023-03-25T18:28:46.311Z,1.98
2023-03-25T18:31:17.141Z,2.10
2023-03-25T18:33:48.303Z,2.05
2023-03-25T18:36:14.822Z,2.20
2023-03-25T18:38:41.674Z,2.13
2023-03-25T18:41:11.338Z,2.00
2023-03-25T18:43:37.785Z,17.95
2023-03-25T18:46:04.512Z,2.38
2023-03-25T18:48:31.093Z,1.63
2023-03-25T18:50:59.170Z,3.10
2023-03-25T18:53:28.349Z,3.10
2023-03-25T18:55:59.805Z,2.60
2023-03-25T18:58:30.764Z,2.63
2023-03-25T19:00:58.055Z,1.90
2023-03-25T19:03:30.598Z,2.50
2023-03-25T19:05:59.277Z,2.97
2023-03-25T19:08:26.665Z,3.45
2023-03-25T19:10:57.405Z,2.45
2023-03-25T19:13:28.563Z,2.08
2023-03-25T19:15:55.192Z,2.33
2023-03-25T19:18:27.859Z,2.35
2023-03-25T19:20:55.232Z,3.53
2023-03-25T19:23:22.252Z,2.83
2023-03-25T19:25:51.705Z,3.40
2023-03-25T19:30:48.977Z,2.63
2023-03-25T19:33:15.990Z,2.60
2023-03-25T19:35:42.882Z,2.97
2023-03-25T19:38:09.566Z,3.40
2023-03-25T19:40:38.054Z,3.03
2023-03-25T19:43:07.624Z,3.20
2023-03-25T19:48:01.208Z,3.08
2023-03-25T19:50:31.998Z,4.15
2023-03-25T19:53:00.552Z,3.40
2023-03-25T19:55:27.645Z,3.47
2023-03-25T19:57:54.679Z,3.78
2023-03-25T20:00:23.712Z,4.25
2023-03-25T20:02:52.188Z,4.00
2023-03-25T20:05:21.023Z,4.73
2023-03-25T20:07:48.190Z,4.25
2023-03-25T20:10:20.153Z,4.43
2023-03-25T20:12:48.540Z,5.00
2023-03-25T20:15:16.577Z,4.15
2023-03-25T20:17:43.258Z,3.58
2023-03-25T20:20:12.338Z,4.70
2023-03-25T20:22:39.920Z,3.85
2023-03-25T20:25:07.717Z,3.35
2023-03-25T20:27:34.360Z,3.90
2023-03-25T20:30:01.325Z,4.30
2023-03-25T20:32:37.710Z,4.43
2023-03-25T20:35:07.328Z,4.35
2023-03-25T20:37:36.787Z,4.20
2023-03-25T20:42:30.619Z,3.58
2023-03-25T20:44:57.039Z,3.85
2023-03-25T20:47:23.469Z,3.60
2023-03-25T20:49:49.964Z,3.22
2023-03-25T20:52:16.430Z,3.80
2023-03-25T20:54:42.993Z,4.00
2023-03-25T20:57:09.553Z,3.67
2023-03-25T20:59:36.581Z,4.15
2023-03-25T21:02:03.923Z,4.45
2023-03-25T21:04:30.665Z,4.35
2023-03-25T21:06:57.371Z,4.10
2023-03-25T21:09:23.998Z,3.63
2023-03-25T21:11:50.817Z,3.60
2023-03-25T21:14:18.734Z,4.25
2023-03-25T21:16:45.802Z,3.50
2023-03-25T21:19:13.226Z,3.03
2023-03-25T21:21:40.589Z,3.72
2023-03-25T21:24:07.566Z,4.40
2023-03-25T21:26:34.816Z,4.00
2023-03-25T21:29:01.447Z,4.65
2023-03-25T21:31:28.981Z,4.63
2023-03-25T21:33:57.227Z,4.60
2023-03-25T21:36:27.310Z,4.07
2023-03-25T21:38:59.452Z,4.75
2023-03-25T21:41:27.619Z,4.00
2023-03-25T21:43:54.286Z,4.47
2023-03-25T21:46:27.140Z,3.92
2023-03-25T21:48:55.141Z,4.13
2023-03-25T21:51:21.592Z,4.38
2023-03-25T21:53:48.117Z,3.97
2023-03-25T21:56:20.306Z,4.45
2023-03-25T21:58:48.478Z,3.47
2023-03-25T22:01:19.556Z,3.35
2023-03-25T22:03:47.137Z,3.35
2023-03-25T22:06:19.335Z,3.67
2023-03-25T22:08:46.462Z,3.65
2023-03-25T22:11:21.935Z,4.35
2023-03-25T22:13:49.521Z,3.70
2023-03-25T22:16:18.378Z,3.40
2023-03-25T22:18:46.032Z,3.38
2023-03-25T22:21:20.028Z,3.67
2023-03-25T22:23:48.213Z,3.63
2023-03-25T22:26:16.487Z,3.65
2023-03-25T22:28:44.158Z,3.70
2023-03-25T22:31:12.551Z,4.50
2023-03-25T22:33:39.892Z,4.20
2023-03-25T22:36:11.748Z,4.22
2023-03-25T22:38:44.450Z,4.25
2023-03-25T22:41:13.152Z,3.85
2023-03-25T22:43:39.944Z,4.00
2023-03-25T22:46:07.847Z,4.15
2023-03-25T22:48:35.517Z,3.90
2023-03-25T22:51:02.016Z,4.25
2023-03-25T22:53:28.658Z,4.05
2023-03-25T22:55:56.725Z,4.22
2023-03-25T22:58:26.569Z,3.40
2023-03-25T23:00:54.906Z,4.55
2023-03-25T23:03:23.498Z,3.90
2023-03-25T23:06:02.178Z,3.75
2023-03-25T23:08:31.758Z,3.67
2023-03-25T23:13:33.897Z,3.67
2023-03-25T23:16:03.790Z,3.42
2023-03-25T23:18:30.596Z,5.13
2023-03-25T23:20:59.305Z,4.68
2023-03-25T23:23:26.694Z,4.38
2023-03-25T23:26:16.508Z,4.50
2023-03-25T23:28:44.578Z,3.88
2023-03-25T23:31:14.104Z,4.05
2023-03-25T23:33:41.683Z,3.55
2023-03-25T23:36:09.627Z,5.20
2023-03-25T23:38:37.002Z,4.88
2023-03-25T23:41:06.223Z,5.25
2023-03-25T23:43:33.906Z,4.80
2023-03-25T23:46:01.101Z,4.45
2023-03-25T23:48:28.345Z,4.47
2023-03-25T23:50:56.698Z,3.88
2023-03-25T23:53:27.398Z,5.38
2023-03-25T23:55:55.527Z,4.05
2023-03-25T23:58:25.290Z,4.55
